sensor_id;sensor_type;location;lat;lon;timestamp;noise_LAeq;noise_LA_min;noise_LA_max;noise_LA01;noise_LA95
67308;Laerm;57662;51.436;5.978;2023-04-24T00:00:02;41.40;35.04;54.68;;
67308;Laerm;57662;51.436;5.978;2023-04-24T00:00:16;40.06;34.80;49.51;;
67308;Laerm;57662;51.436;5.978;2023-04-24T00:00:27;36.56;34.54;38.66;;
67308;Laerm;57662;51.436;5.978;2023-04-24T00:00:37;36.44;34.70;39.97;;
67308;Laerm;57662;51.436;5.978;2023-04-24T00:00:50;36.51;34.91;38.03;;
67308;Laerm;57662;51.436;5.978;2023-04-24T00:01:01;36.71;34.72;38.38;;
67308;Laerm;57662;51.436;5.978;2023-04-24T00:01:11;44.47;35.71;50.43;;
67308;Laerm;57662;51.436;5.978;2023-04-24T00:01:23;43.08;37.52;50.57;;
67308;Laerm;57662;51.436;5.978;2023-04-24T00:01:33;45.08;37.03;51.10;;
67308;Laerm;57662;51.436;5.978;2023-04-24T00:01:44;45.85;41.28;50.58;;
67308;Laerm;57662;51.436;5.978;2023-04-24T00:01:54;67.25;48.60;71.51;;
67308;Laerm;57662;51.436;5.978;2023-04-24T00:02:05;66.99;56.60;70.94;;
67308;Laerm;57662;51.436;5.978;2023-04-24T00:02:16;54.13;41.31;60.82;;
67308;Laerm;57662;51.436;5.978;2023-04-24T00:02:27;51.69;37.81;66.25;;
67308;Laerm;57662;51.436;5.978;2023-04-24T00:02:37;50.71;36.76;68.96;;
67308;Laerm;57662;51.436;5.978;2023-04-24T00:02:50;44.67;35.79;61.89;;
67308;Laerm;57662;51.436;5.978;2023-04-24T00:03:00;49.21;36.93;62.94;;
67308;Laerm;57662;51.436;5.978;2023-04-24T00:03:11;39.82;36.73;50.14;;
67308;Laerm;57662;51.436;5.978;2023-04-24T00:03:23;38.95;35.88;49.48;;
67308;Laerm;57662;51.436;5.978;2023-04-24T00:03:34;38.98;36.70;40.90;;
67308;Laerm;57662;51.436;5.978;2023-04-24T00:03:44;38.05;35.72;39.52;;
67308;Laerm;57662;51.436;5.978;2023-04-24T00:03:55;38.28;36.68;41.93;;
67308;Laerm;57662;51.436;5.978;2023-04-24T00:04:06;37.85;35.83;42.51;;
67308;Laerm;57662;51.436;5.978;2023-04-24T00:04:17;37.30;35.73;40.35;;
67308;Laerm;57662;51.436;5.978;2023-04-24T00:04:27;37.10;34.89;39.82;;
67308;Laerm;57662;51.436;5.978;2023-04-24T00:04:37;41.78;36.01;54.01;;
67308;Laerm;57662;51.436;5.978;2023-04-24T00:04:50;42.24;36.31;56.89;;
67308;Laerm;57662;51.436;5.978;2023-04-24T00:05:01;38.22;36.63;42.52;;
67308;Laerm;57662;51.436;5.978;2023-04-24T00:05:15;37.45;35.99;41.79;;
67308;Laerm;57662;51.436;5.978;2023-04-24T00:05:25;37.68;35.51;43.34;;
67308;Laerm;57662;51.436;5.978;2023-04-24T00:05:36;37.32;35.65;40.85;;
67308;Laerm;57662;51.436;5.978;2023-04-24T00:05:46;40.16;36.16;52.09;;
67308;Laerm;57662;51.436;5.978;2023-04-24T00:05:56;39.22;36.77;47.87;;
67308;Laerm;57662;51.436;5.978;2023-04-24T00:06:08;47.35;36.89;64.08;;
67308;Laerm;57662;51.436;5.978;2023-04-24T00:06:19;42.60;38.39;49.43;;
67308;Laerm;57662;51.436;5.978;2023-04-24T00:06:29;42.54;35.68;61.58;;
67308;Laerm;57662;51.436;5.978;2023-04-24T00:06:43;39.18;36.00;51.50;;
67308;Laerm;57662;51.436;5.978;2023-04-24T00:06:53;38.03;35.98;46.53;;
67308;Laerm;57662;51.436;5.978;2023-04-24T00:07:07;37.60;35.75;42.00;;
67308;Laerm;57662;51.436;5.978;2023-04-24T00:07:17;36.70;35.16;39.40;;
67308;Laerm;57662;51.436;5.978;2023-04-24T00:07:28;37.35;34.48;40.31;;
67308;Laerm;57662;51.436;5.978;2023-04-24T00:07:38;38.57;35.22;54.36;;
67308;Laerm;57662;51.436;5.978;2023-04-24T00:07:48;39.65;35.42;49.13;;
67308;Laerm;57662;51.436;5.978;2023-04-24T00:07:58;37.75;35.83;40.95;;
67308;Laerm;57662;51.436;5.978;2023-04-24T00:08:09;41.42;36.82;53.97;;
67308;Laerm;57662;51.436;5.978;2023-04-24T00:08:19;41.13;35.81;49.96;;
67308;Laerm;57662;51.436;5.978;2023-04-24T00:08:29;38.46;36.36;44.25;;
67308;Laerm;57662;51.436;5.978;2023-04-24T00:08:40;37.80;36.10;41.82;;
67308;Laerm;57662;51.436;5.978;2023-04-24T00:08:50;37.58;36.10;40.34;;
67308;Laerm;57662;51.436;5.978;2023-04-24T00:09:01;37.77;35.76;39.73;;
67308;Laerm;57662;51.436;5.978;2023-04-24T00:09:11;37.90;36.16;41.10;;
67308;Laerm;57662;51.436;5.978;2023-04-24T00:09:21;36.97;35.63;38.44;;
67308;Laerm;57662;51.436;5.978;2023-04-24T00:09:32;36.86;35.18;38.34;;
67308;Laerm;57662;51.436;5.978;2023-04-24T00:09:42;38.70;36.14;45.16;;
67308;Laerm;57662;51.436;5.978;2023-04-24T00:09:53;37.90;36.11;40.07;;
67308;Laerm;57662;51.436;5.978;2023-04-24T00:10:03;38.54;36.14;50.12;;
67308;Laerm;57662;51.436;5.978;2023-04-24T00:10:13;42.04;37.26;53.93;;
67308;Laerm;57662;51.436;5.978;2023-04-24T00:10:23;38.49;36.39;43.52;;
67308;Laerm;57662;51.436;5.978;2023-04-24T00:10:34;40.91;37.13;53.47;;
67308;Laerm;57662;51.436;5.978;2023-04-24T00:10:44;41.46;37.57;51.05;;
67308;Laerm;57662;51.436;5.978;2023-04-24T00:10:55;40.93;37.70;51.51;;
67308;Laerm;57662;51.436;5.978;2023-04-24T00:11:05;39.62;37.39;43.02;;
67308;Laerm;57662;51.436;5.978;2023-04-24T00:11:15;41.20;38.81;42.83;;
67308;Laerm;57662;51.436;5.978;2023-04-24T00:11:25;39.23;37.38;43.71;;
67308;Laerm;57662;51.436;5.978;2023-04-24T00:11:36;38.15;36.39;39.89;;
67308;Laerm;57662;51.436;5.978;2023-04-24T00:11:46;46.97;36.55;62.41;;
67308;Laerm;57662;51.436;5.978;2023-04-24T00:11:57;38.83;36.12;44.38;;
67308;Laerm;57662;51.436;5.978;2023-04-24T00:12:07;39.00;36.03;43.87;;
67308;Laerm;57662;51.436;5.978;2023-04-24T00:12:18;38.80;36.73;44.90;;
67308;Laerm;57662;51.436;5.978;2023-04-24T00:12:28;39.02;37.13;43.13;;
67308;Laerm;57662;51.436;5.978;2023-04-24T00:12:39;39.87;37.60;46.37;;
67308;Laerm;57662;51.436;5.978;2023-04-24T00:12:49;50.65;36.93;63.86;;
67308;Laerm;57662;51.436;5.978;2023-04-24T00:12:59;38.95;36.73;42.35;;
67308;Laerm;57662;51.436;5.978;2023-04-24T00:13:10;38.24;36.53;40.37;;
67308;Laerm;57662;51.436;5.978;2023-04-24T00:13:20;37.98;36.29;40.57;;
67308;Laerm;57662;51.436;5.978;2023-04-24T00:13:30;37.61;35.99;41.71;;
67308;Laerm;57662;51.436;5.978;2023-04-24T00:13:41;41.02;34.95;60.42;;
67308;Laerm;57662;51.436;5.978;2023-04-24T00:13:51;38.00;35.54;42.92;;
67308;Laerm;57662;51.436;5.978;2023-04-24T00:14:01;38.01;36.01;41.07;;
67308;Laerm;57662;51.436;5.978;2023-04-24T00:14:12;38.00;36.10;42.27;;
67308;Laerm;57662;51.436;5.978;2023-04-24T00:14:22;40.24;38.00;49.22;;
67308;Laerm;57662;51.436;5.978;2023-04-24T00:14:32;39.93;37.23;47.36;;
67308;Laerm;57662;51.436;5.978;2023-04-24T00:14:42;40.15;38.33;45.28;;
67308;Laerm;57662;51.436;5.978;2023-04-24T00:14:53;45.36;39.77;58.44;;
67308;Laerm;57662;51.436;5.978;2023-04-24T00:15:03;59.04;40.36;74.88;;
67308;Laerm;57662;51.436;5.978;2023-04-24T00:15:14;49.37;37.82;66.33;;
67308;Laerm;57662;51.436;5.978;2023-04-24T00:15:25;43.88;36.86;59.91;;
67308;Laerm;57662;51.436;5.978;2023-04-24T00:15:35;38.58;36.93;40.88;;
67308;Laerm;57662;51.436;5.978;2023-04-24T00:15:45;43.84;38.50;53.71;;
67308;Laerm;57662;51.436;5.978;2023-04-24T00:15:56;45.38;40.76;53.61;;
67308;Laerm;57662;51.436;5.978;2023-04-24T00:16:06;47.06;38.15;64.08;;
67308;Laerm;57662;51.436;5.978;2023-04-24T00:16:16;40.28;37.38;48.43;;
67308;Laerm;57662;51.436;5.978;2023-04-24T00:16:26;40.94;37.71;50.16;;
67308;Laerm;57662;51.436;5.978;2023-04-24T00:16:37;39.42;37.00;44.65;;
67308;Laerm;57662;51.436;5.978;2023-04-24T00:16:48;49.73;39.03;63.43;;
67308;Laerm;57662;51.436;5.978;2023-04-24T00:16:58;44.07;40.92;48.66;;
67308;Laerm;57662;51.436;5.978;2023-04-24T00:17:08;52.68;40.81;64.71;;
67308;Laerm;57662;51.436;5.978;2023-04-24T00:17:19;58.30;43.37;69.44;;
67308;Laerm;57662;51.436;5.978;2023-04-24T00:17:32;49.78;38.33;61.82;;
67308;Laerm;57662;51.436;5.978;2023-04-24T00:17:42;41.72;37.31;56.51;;
67308;Laerm;57662;51.436;5.978;2023-04-24T00:17:53;38.65;36.97;42.63;;
67308;Laerm;57662;51.436;5.978;2023-04-24T00:18:03;42.41;36.44;56.37;;
67308;Laerm;57662;51.436;5.978;2023-04-24T00:18:14;38.11;36.61;39.83;;
67308;Laerm;57662;51.436;5.978;2023-04-24T00:18:24;38.69;36.19;43.28;;
67308;Laerm;57662;51.436;5.978;2023-04-24T00:18:34;37.82;36.32;40.27;;
67308;Laerm;57662;51.436;5.978;2023-04-24T00:18:44;37.11;35.85;39.06;;
67308;Laerm;57662;51.436;5.978;2023-04-24T00:18:55;38.40;36.29;40.34;;
67308;Laerm;57662;51.436;5.978;2023-04-24T00:19:05;38.25;36.37;39.86;;
67308;Laerm;57662;51.436;5.978;2023-04-24T00:19:16;37.80;35.72;44.40;;
67308;Laerm;57662;51.436;5.978;2023-04-24T00:19:26;39.16;36.06;47.75;;
67308;Laerm;57662;51.436;5.978;2023-04-24T00:19:37;39.72;36.83;49.59;;
67308;Laerm;57662;51.436;5.978;2023-04-24T00:19:48;38.18;35.76;47.01;;
67308;Laerm;57662;51.436;5.978;2023-04-24T00:19:58;37.81;36.21;43.82;;
67308;Laerm;57662;51.436;5.978;2023-04-24T00:20:09;37.16;35.44;39.74;;
67308;Laerm;57662;51.436;5.978;2023-04-24T00:20:20;36.82;35.03;40.21;;
67308;Laerm;57662;51.436;5.978;2023-04-24T00:20:31;36.41;34.68;38.80;;
67308;Laerm;57662;51.436;5.978;2023-04-24T00:20:45;37.71;35.20;47.26;;
67308;Laerm;57662;51.436;5.978;2023-04-24T00:20:56;45.36;36.07;60.39;;
67308;Laerm;57662;51.436;5.978;2023-04-24T00:21:07;38.95;35.95;50.71;;
67308;Laerm;57662;51.436;5.978;2023-04-24T00:21:17;43.35;38.20;57.24;;
67308;Laerm;57662;51.436;5.978;2023-04-24T00:21:28;45.98;38.14;58.21;;
67308;Laerm;57662;51.436;5.978;2023-04-24T00:21:38;42.51;38.84;56.07;;
67308;Laerm;57662;51.436;5.978;2023-04-24T00:21:49;43.31;39.01;54.19;;
67308;Laerm;57662;51.436;5.978;2023-04-24T00:22:00;43.93;40.78;52.15;;
67308;Laerm;57662;51.436;5.978;2023-04-24T00:22:10;58.76;39.55;78.79;;
67308;Laerm;57662;51.436;5.978;2023-04-24T00:22:21;40.96;38.98;48.15;;
67308;Laerm;57662;51.436;5.978;2023-04-24T00:22:32;41.48;37.60;55.87;;
67308;Laerm;57662;51.436;5.978;2023-04-24T00:22:42;39.08;37.11;46.20;;
67308;Laerm;57662;51.436;5.978;2023-04-24T00:22:53;48.57;36.94;66.50;;
67308;Laerm;57662;51.436;5.978;2023-04-24T00:23:03;39.90;36.42;50.44;;
67308;Laerm;57662;51.436;5.978;2023-04-24T00:23:13;38.27;36.19;44.37;;
67308;Laerm;57662;51.436;5.978;2023-04-24T00:23:24;37.79;35.71;42.52;;
67308;Laerm;57662;51.436;5.978;2023-04-24T00:23:34;37.35;35.68;39.42;;
67308;Laerm;57662;51.436;5.978;2023-04-24T00:23:44;38.25;36.13;46.97;;
67308;Laerm;57662;51.436;5.978;2023-04-24T00:23:55;39.04;37.43;43.49;;
67308;Laerm;57662;51.436;5.978;2023-04-24T00:24:05;39.00;36.03;47.84;;
67308;Laerm;57662;51.436;5.978;2023-04-24T00:24:16;37.71;36.08;41.89;;
67308;Laerm;57662;51.436;5.978;2023-04-24T00:24:26;37.95;35.40;40.00;;
67308;Laerm;57662;51.436;5.978;2023-04-24T00:24:36;38.42;36.58;41.31;;
67308;Laerm;57662;51.436;5.978;2023-04-24T00:24:47;37.92;35.90;45.25;;
67308;Laerm;57662;51.436;5.978;2023-04-24T00:24:57;38.50;36.32;50.88;;
67308;Laerm;57662;51.436;5.978;2023-04-24T00:25:07;38.49;36.55;41.14;;
67308;Laerm;57662;51.436;5.978;2023-04-24T00:25:18;40.54;37.09;52.29;;
67308;Laerm;57662;51.436;5.978;2023-04-24T00:25:28;40.91;38.08;43.55;;
67308;Laerm;57662;51.436;5.978;2023-04-24T00:25:38;42.88;39.98;49.11;;
67308;Laerm;57662;51.436;5.978;2023-04-24T00:25:48;48.82;39.50;60.27;;
67308;Laerm;57662;51.436;5.978;2023-04-24T00:25:59;55.35;37.97;72.76;;
67308;Laerm;57662;51.436;5.978;2023-04-24T00:26:09;38.67;36.73;44.44;;
67308;Laerm;57662;51.436;5.978;2023-04-24T00:26:20;37.17;35.44;39.90;;
67308;Laerm;57662;51.436;5.978;2023-04-24T00:26:30;37.90;35.85;41.13;;
67308;Laerm;57662;51.436;5.978;2023-04-24T00:26:40;39.05;36.75;47.85;;
67308;Laerm;57662;51.436;5.978;2023-04-24T00:26:51;40.47;34.88;51.95;;
67308;Laerm;57662;51.436;5.978;2023-04-24T00:27:01;44.23;36.05;58.06;;
67308;Laerm;57662;51.436;5.978;2023-04-24T00:27:12;39.85;35.43;51.36;;
67308;Laerm;57662;51.436;5.978;2023-04-24T00:27:23;46.54;36.38;57.00;;
67308;Laerm;57662;51.436;5.978;2023-04-24T00:27:33;46.12;36.48;58.81;;
67308;Laerm;57662;51.436;5.978;2023-04-24T00:27:45;38.64;34.90;47.74;;
67308;Laerm;57662;51.436;5.978;2023-04-24T00:27:55;37.17;35.73;39.83;;
67308;Laerm;57662;51.436;5.978;2023-04-24T00:28:05;40.34;37.21;52.69;;
67308;Laerm;57662;51.436;5.978;2023-04-24T00:28:16;39.22;35.88;48.82;;
67308;Laerm;57662;51.436;5.978;2023-04-24T00:28:26;42.62;36.21;54.57;;
67308;Laerm;57662;51.436;5.978;2023-04-24T00:28:36;41.11;35.03;51.69;;
67308;Laerm;57662;51.436;5.978;2023-04-24T00:28:47;36.90;35.20;39.90;;
67308;Laerm;57662;51.436;5.978;2023-04-24T00:28:57;38.48;35.12;50.81;;
67308;Laerm;57662;51.436;5.978;2023-04-24T00:29:07;38.63;35.00;51.73;;
67308;Laerm;57662;51.436;5.978;2023-04-24T00:29:18;36.78;35.05;44.09;;
67308;Laerm;57662;51.436;5.978;2023-04-24T00:29:28;36.63;34.76;38.30;;
67308;Laerm;57662;51.436;5.978;2023-04-24T00:29:38;35.94;34.22;42.97;;
67308;Laerm;57662;51.436;5.978;2023-04-24T00:29:48;37.75;35.25;46.66;;
67308;Laerm;57662;51.436;5.978;2023-04-24T00:29:59;37.93;35.62;45.33;;
67308;Laerm;57662;51.436;5.978;2023-04-24T00:30:09;37.34;34.93;41.27;;
67308;Laerm;57662;51.436;5.978;2023-04-24T00:30:19;47.06;37.62;59.97;;
67308;Laerm;57662;51.436;5.978;2023-04-24T00:30:30;41.99;38.73;51.66;;
67308;Laerm;57662;51.436;5.978;2023-04-24T00:30:40;41.80;38.18;56.50;;
67308;Laerm;57662;51.436;5.978;2023-04-24T00:30:50;40.44;38.24;47.36;;
67308;Laerm;57662;51.436;5.978;2023-04-24T00:31:01;40.03;36.80;54.46;;
67308;Laerm;57662;51.436;5.978;2023-04-24T00:31:12;41.81;37.16;51.78;;
67308;Laerm;57662;51.436;5.978;2023-04-24T00:31:22;42.78;37.65;54.32;;
67308;Laerm;57662;51.436;5.978;2023-04-24T00:31:32;44.42;39.06;57.78;;
67308;Laerm;57662;51.436;5.978;2023-04-24T00:31:44;46.43;39.01;59.12;;
67308;Laerm;57662;51.436;5.978;2023-04-24T00:31:55;53.71;43.83;74.31;;
67308;Laerm;57662;51.436;5.978;2023-04-24T00:32:05;61.24;46.59;74.14;;
67308;Laerm;57662;51.436;5.978;2023-04-24T00:32:15;52.81;44.40;68.98;;
67308;Laerm;57662;51.436;5.978;2023-04-24T00:32:26;50.46;41.02;60.05;;
67308;Laerm;57662;51.436;5.978;2023-04-24T00:32:36;51.58;41.80;63.57;;
67308;Laerm;57662;51.436;5.978;2023-04-24T00:32:46;47.06;38.49;60.01;;
67308;Laerm;57662;51.436;5.978;2023-04-24T00:32:57;42.58;38.56;52.38;;
67308;Laerm;57662;51.436;5.978;2023-04-24T00:33:07;41.62;39.20;51.00;;
67308;Laerm;57662;51.436;5.978;2023-04-24T00:33:18;39.82;36.44;43.42;;
67308;Laerm;57662;51.436;5.978;2023-04-24T00:33:28;39.29;36.35;45.20;;
67308;Laerm;57662;51.436;5.978;2023-04-24T00:33:38;38.80;37.29;40.91;;
67308;Laerm;57662;51.436;5.978;2023-04-24T00:33:49;40.89;37.37;50.62;;
67308;Laerm;57662;51.436;5.978;2023-04-24T00:33:59;40.77;37.43;51.13;;
67308;Laerm;57662;51.436;5.978;2023-04-24T00:34:09;40.45;38.10;43.86;;
67308;Laerm;57662;51.436;5.978;2023-04-24T00:34:21;43.19;38.84;46.70;;
67308;Laerm;57662;51.436;5.978;2023-04-24T00:34:32;51.60;42.55;65.30;;
67308;Laerm;57662;51.436;5.978;2023-04-24T00:34:42;46.20;39.52;60.39;;
67308;Laerm;57662;51.436;5.978;2023-04-24T00:34:52;42.82;39.63;51.99;;
67308;Laerm;57662;51.436;5.978;2023-04-24T00:35:03;40.50;38.71;43.34;;
67308;Laerm;57662;51.436;5.978;2023-04-24T00:35:13;40.25;38.29;46.03;;
67308;Laerm;57662;51.436;5.978;2023-04-24T00:35:24;41.22;37.32;54.20;;
67308;Laerm;57662;51.436;5.978;2023-04-24T00:35:34;47.75;37.51;57.46;;
67308;Laerm;57662;51.436;5.978;2023-04-24T00:35:45;41.07;36.54;54.73;;
67308;Laerm;57662;51.436;5.978;2023-04-24T00:35:55;38.64;36.49;42.91;;
67308;Laerm;57662;51.436;5.978;2023-04-24T00:36:05;37.62;35.83;39.18;;
67308;Laerm;57662;51.436;5.978;2023-04-24T00:36:15;38.45;36.48;48.17;;
67308;Laerm;57662;51.436;5.978;2023-04-24T00:36:26;38.47;36.63;39.84;;
67308;Laerm;57662;51.436;5.978;2023-04-24T00:36:37;38.30;36.71;40.92;;
67308;Laerm;57662;51.436;5.978;2023-04-24T00:36:47;40.43;39.04;45.13;;
67308;Laerm;57662;51.436;5.978;2023-04-24T00:36:59;41.54;39.40;47.47;;
67308;Laerm;57662;51.436;5.978;2023-04-24T00:37:10;39.78;37.39;42.98;;
67308;Laerm;57662;51.436;5.978;2023-04-24T00:37:21;40.44;35.77;57.21;;
67308;Laerm;57662;51.436;5.978;2023-04-24T00:37:31;38.51;36.35;44.18;;
67308;Laerm;57662;51.436;5.978;2023-04-24T00:37:42;39.00;37.25;43.04;;
67308;Laerm;57662;51.436;5.978;2023-04-24T00:37:52;39.12;37.14;43.67;;
67308;Laerm;57662;51.436;5.978;2023-04-24T00:38:02;46.01;38.21;62.79;;
67308;Laerm;57662;51.436;5.978;2023-04-24T00:38:12;42.08;39.34;48.67;;
67308;Laerm;57662;51.436;5.978;2023-04-24T00:38:23;40.09;37.69;47.37;;
67308;Laerm;57662;51.436;5.978;2023-04-24T00:38:33;40.35;37.75;42.61;;
67308;Laerm;57662;51.436;5.978;2023-04-24T00:38:43;41.39;37.24;52.66;;
67308;Laerm;57662;51.436;5.978;2023-04-24T00:38:54;38.94;36.97;45.23;;
67308;Laerm;57662;51.436;5.978;2023-04-24T00:39:05;42.20;37.90;55.21;;
67308;Laerm;57662;51.436;5.978;2023-04-24T00:39:15;46.26;37.64;59.55;;
67308;Laerm;57662;51.436;5.978;2023-04-24T00:39:25;38.76;36.39;50.78;;
67308;Laerm;57662;51.436;5.978;2023-04-24T00:39:36;38.23;36.38;41.39;;
67308;Laerm;57662;51.436;5.978;2023-04-24T00:39:46;38.31;36.04;47.71;;
67308;Laerm;57662;51.436;5.978;2023-04-24T00:39:56;39.95;36.24;48.22;;
67308;Laerm;57662;51.436;5.978;2023-04-24T00:40:07;43.04;39.75;47.42;;
67308;Laerm;57662;51.436;5.978;2023-04-24T00:40:17;48.14;41.70;62.11;;
67308;Laerm;57662;51.436;5.978;2023-04-24T00:40:28;52.35;42.94;66.07;;
67308;Laerm;57662;51.436;5.978;2023-04-24T00:40:38;61.55;42.40;76.05;;
67308;Laerm;57662;51.436;5.978;2023-04-24T00:40:49;60.37;39.62;73.79;;
67308;Laerm;57662;51.436;5.978;2023-04-24T00:41:00;47.49;38.84;67.57;;
67308;Laerm;57662;51.436;5.978;2023-04-24T00:41:10;40.66;37.87;47.96;;
67308;Laerm;57662;51.436;5.978;2023-04-24T00:41:21;38.82;36.93;41.68;;
67308;Laerm;57662;51.436;5.978;2023-04-24T00:41:31;39.06;36.36;47.92;;
67308;Laerm;57662;51.436;5.978;2023-04-24T00:41:42;37.87;36.09;40.08;;
67308;Laerm;57662;51.436;5.978;2023-04-24T00:41:53;38.30;35.89;40.43;;
67308;Laerm;57662;51.436;5.978;2023-04-24T00:42:03;46.57;38.81;63.46;;
67308;Laerm;57662;51.436;5.978;2023-04-24T00:42:16;41.63;39.12;48.81;;
67308;Laerm;57662;51.436;5.978;2023-04-24T00:42:26;39.58;36.70;46.94;;
67308;Laerm;57662;51.436;5.978;2023-04-24T00:42:37;38.49;36.25;48.13;;
67308;Laerm;57662;51.436;5.978;2023-04-24T00:42:47;40.98;36.81;49.95;;
67308;Laerm;57662;51.436;5.978;2023-04-24T00:42:57;41.86;38.08;55.11;;
67308;Laerm;57662;51.436;5.978;2023-04-24T00:43:08;40.22;38.07;46.21;;
67308;Laerm;57662;51.436;5.978;2023-04-24T00:43:18;38.85;36.61;41.17;;
67308;Laerm;57662;51.436;5.978;2023-04-24T00:43:28;37.84;36.47;39.58;;
67308;Laerm;57662;51.436;5.978;2023-04-24T00:43:39;44.15;36.28;54.64;;
67308;Laerm;57662;51.436;5.978;2023-04-24T00:43:49;38.28;36.60;42.27;;
67308;Laerm;57662;51.436;5.978;2023-04-24T00:44:00;45.27;37.08;58.13;;
67308;Laerm;57662;51.436;5.978;2023-04-24T00:44:10;48.43;37.19;65.32;;
67308;Laerm;57662;51.436;5.978;2023-04-24T00:44:21;42.44;35.99;58.30;;
67308;Laerm;57662;51.436;5.978;2023-04-24T00:44:32;45.95;38.47;61.72;;
67308;Laerm;57662;51.436;5.978;2023-04-24T00:44:42;44.57;38.39;59.73;;
67308;Laerm;57662;51.436;5.978;2023-04-24T00:44:53;43.42;40.67;52.12;;
67308;Laerm;57662;51.436;5.978;2023-04-24T00:45:04;44.84;40.42;56.20;;
67308;Laerm;57662;51.436;5.978;2023-04-24T00:45:14;47.53;39.55;58.37;;
67308;Laerm;57662;51.436;5.978;2023-04-24T00:45:25;40.79;36.47;53.12;;
67308;Laerm;57662;51.436;5.978;2023-04-24T00:45:35;40.42;36.85;48.54;;
67308;Laerm;57662;51.436;5.978;2023-04-24T00:45:46;38.50;36.60;44.11;;
67308;Laerm;57662;51.436;5.978;2023-04-24T00:45:56;37.93;36.25;42.81;;
67308;Laerm;57662;51.436;5.978;2023-04-24T00:46:07;38.43;36.52;43.46;;
67308;Laerm;57662;51.436;5.978;2023-04-24T00:46:17;41.79;35.79;54.10;;
67308;Laerm;57662;51.436;5.978;2023-04-24T00:46:28;50.36;36.29;64.89;;
67308;Laerm;57662;51.436;5.978;2023-04-24T00:46:38;42.74;36.71;54.74;;
67308;Laerm;57662;51.436;5.978;2023-04-24T00:46:49;55.85;38.82;69.08;;
67308;Laerm;57662;51.436;5.978;2023-04-24T00:47:04;42.26;36.71;59.07;;
67308;Laerm;57662;51.436;5.978;2023-04-24T00:47:15;37.88;35.56;44.97;;
67308;Laerm;57662;51.436;5.978;2023-04-24T00:47:25;38.53;35.57;49.71;;
67308;Laerm;57662;51.436;5.978;2023-04-24T00:47:36;39.14;36.09;45.40;;
67308;Laerm;57662;51.436;5.978;2023-04-24T00:47:47;41.05;38.00;51.86;;
67308;Laerm;57662;51.436;5.978;2023-04-24T00:47:58;39.76;37.53;41.58;;
67308;Laerm;57662;51.436;5.978;2023-04-24T00:48:10;39.71;37.10;42.03;;
67308;Laerm;57662;51.436;5.978;2023-04-24T00:48:21;41.42;36.53;53.48;;
67308;Laerm;57662;51.436;5.978;2023-04-24T00:48:33;43.09;37.40;53.40;;
67308;Laerm;57662;51.436;5.978;2023-04-24T00:48:44;44.59;38.04;59.44;;
67308;Laerm;57662;51.436;5.978;2023-04-24T00:48:55;42.36;38.60;52.64;;
67308;Laerm;57662;51.436;5.978;2023-04-24T00:49:06;49.35;38.31;65.62;;
67308;Laerm;57662;51.436;5.978;2023-04-24T00:49:16;41.39;37.58;55.04;;
67308;Laerm;57662;51.436;5.978;2023-04-24T00:49:26;40.12;36.56;50.76;;
67308;Laerm;57662;51.436;5.978;2023-04-24T00:49:37;39.31;37.44;41.00;;
67308;Laerm;57662;51.436;5.978;2023-04-24T00:49:47;39.14;37.64;41.07;;
67308;Laerm;57662;51.436;5.978;2023-04-24T00:49:57;45.90;37.94;62.11;;
67308;Laerm;57662;51.436;5.978;2023-04-24T00:50:07;47.73;37.63;63.77;;
67308;Laerm;57662;51.436;5.978;2023-04-24T00:50:18;38.29;36.42;44.77;;
67308;Laerm;57662;51.436;5.978;2023-04-24T00:50:31;37.24;35.20;39.73;;
67308;Laerm;57662;51.436;5.978;2023-04-24T00:50:41;37.37;35.62;38.59;;
67308;Laerm;57662;51.436;5.978;2023-04-24T00:50:52;37.93;36.51;42.16;;
67308;Laerm;57662;51.436;5.978;2023-04-24T00:51:02;37.51;36.08;38.95;;
67308;Laerm;57662;51.436;5.978;2023-04-24T00:51:12;37.20;35.15;42.97;;
67308;Laerm;57662;51.436;5.978;2023-04-24T00:51:23;44.55;37.19;57.83;;
67308;Laerm;57662;51.436;5.978;2023-04-24T00:51:34;37.88;35.72;43.34;;
67308;Laerm;57662;51.436;5.978;2023-04-24T00:51:44;41.28;37.15;50.01;;
67308;Laerm;57662;51.436;5.978;2023-04-24T00:51:55;44.51;37.78;59.97;;
67308;Laerm;57662;51.436;5.978;2023-04-24T00:52:06;39.40;36.78;45.77;;
67308;Laerm;57662;51.436;5.978;2023-04-24T00:52:18;39.25;36.37;49.31;;
67308;Laerm;57662;51.436;5.978;2023-04-24T00:52:30;38.49;35.49;49.46;;
67308;Laerm;57662;51.436;5.978;2023-04-24T00:52:42;40.61;36.44;54.60;;
67308;Laerm;57662;51.436;5.978;2023-04-24T00:52:52;41.43;38.43;49.78;;
67308;Laerm;57662;51.436;5.978;2023-04-24T00:53:02;45.91;41.26;54.22;;
67308;Laerm;57662;51.436;5.978;2023-04-24T00:53:13;46.52;38.84;61.81;;
67308;Laerm;57662;51.436;5.978;2023-04-24T00:53:23;46.87;40.83;62.47;;
67308;Laerm;57662;51.436;5.978;2023-04-24T00:53:33;48.60;42.90;58.54;;
67308;Laerm;57662;51.436;5.978;2023-04-24T00:53:43;43.03;40.15;47.11;;
67308;Laerm;57662;51.436;5.978;2023-04-24T00:53:54;43.07;40.12;52.00;;
67308;Laerm;57662;51.436;5.978;2023-04-24T00:54:04;43.27;39.19;53.28;;
67308;Laerm;57662;51.436;5.978;2023-04-24T00:54:15;55.85;37.78;71.59;;
67308;Laerm;57662;51.436;5.978;2023-04-24T00:54:25;40.13;38.48;42.48;;
67308;Laerm;57662;51.436;5.978;2023-04-24T00:54:36;41.55;37.92;57.61;;
67308;Laerm;57662;51.436;5.978;2023-04-24T00:54:46;39.05;37.22;42.26;;
67308;Laerm;57662;51.436;5.978;2023-04-24T00:54:57;39.83;37.90;48.10;;
67308;Laerm;57662;51.436;5.978;2023-04-24T00:55:07;43.33;38.67;54.66;;
67308;Laerm;57662;51.436;5.978;2023-04-24T00:55:18;55.36;40.55;72.99;;
67308;Laerm;57662;51.436;5.978;2023-04-24T00:55:28;48.61;39.58;68.10;;
67308;Laerm;57662;51.436;5.978;2023-04-24T00:55:39;40.31;38.25;43.58;;
67308;Laerm;57662;51.436;5.978;2023-04-24T00:55:50;42.74;39.59;50.91;;
67308;Laerm;57662;51.436;5.978;2023-04-24T00:56:01;41.48;38.31;52.57;;
67308;Laerm;57662;51.436;5.978;2023-04-24T00:56:12;40.52;38.66;45.91;;
67308;Laerm;57662;51.436;5.978;2023-04-24T00:56:22;41.78;39.72;45.35;;
67308;Laerm;57662;51.436;5.978;2023-04-24T00:56:33;42.95;40.75;48.83;;
67308;Laerm;57662;51.436;5.978;2023-04-24T00:56:44;54.47;40.15;67.76;;
67308;Laerm;57662;51.436;5.978;2023-04-24T00:56:54;45.71;39.20;57.33;;
67308;Laerm;57662;51.436;5.978;2023-04-24T00:57:05;42.54;40.44;47.77;;
67308;Laerm;57662;51.436;5.978;2023-04-24T00:57:15;42.29;39.73;50.97;;
67308;Laerm;57662;51.436;5.978;2023-04-24T00:57:26;41.08;38.42;51.00;;
67308;Laerm;57662;51.436;5.978;2023-04-24T00:57:36;51.98;38.44;66.97;;
67308;Laerm;57662;51.436;5.978;2023-04-24T00:57:47;42.14;38.77;52.71;;
67308;Laerm;57662;51.436;5.978;2023-04-24T00:57:59;39.98;37.67;44.74;;
67308;Laerm;57662;51.436;5.978;2023-04-24T00:58:09;44.43;37.61;57.15;;
67308;Laerm;57662;51.436;5.978;2023-04-24T00:58:19;40.80;37.62;44.16;;
67308;Laerm;57662;51.436;5.978;2023-04-24T00:58:30;43.68;39.84;51.26;;
67308;Laerm;57662;51.436;5.978;2023-04-24T00:58:41;43.85;37.35;55.31;;
67308;Laerm;57662;51.436;5.978;2023-04-24T00:58:52;49.40;38.87;63.36;;
67308;Laerm;57662;51.436;5.978;2023-04-24T00:59:02;41.11;37.97;49.56;;
67308;Laerm;57662;51.436;5.978;2023-04-24T00:59:13;42.00;37.96;49.11;;
67308;Laerm;57662;51.436;5.978;2023-04-24T00:59:25;42.19;38.60;51.59;;